Ascutney, VT (05030)

2:21 PM EDT on August 30, 2015 (GMT -0400)
Ascutney Farm Stand | | Change Station
CLOSE
Current Station
Personal Weather Station
Location: Windsor, VT
Elevation: 427 ft
Nearby Weather Stations

Elev 427 ft 43.41 °N, 72.41 °W | Updated 13 minutes ago

Partly Cloudy
Partly Cloudy
87.6 °F
Feels Like 90 °F
N
4.2
Wind Variable Wind from West

Today
High -- | Low -- °F
--% Chance of Precip.
Yesterday
High -- | Low -- °F
Precip. -- in
6:11 AM 7:28 PM
Full, 99% visible
Pressure 30.05 in
Visibility 10.0 miles
Clouds Clear
Heat Index 90 °F
Dew Point 65 °F
Humidity 48%
Rainfall 0.00 in
Snow Depth Not available.
UV 8 out of 12
Pollen 8.10 out of 12
Air Quality Not available.
Flu Activity Not available.
METAR KVSF 301754Z AUTO VRB03KT 10SM CLR 27/13 A3006 RMK AO2 SLP176 T02670128 10267 20156 58013
Pressure 30.05 in
Visibility 10.0 miles
Clouds Clear
Heat Index 90 °F
Dew Point 65 °F
Humidity 48%
Rainfall 0.00 in
Snow Depth Not available.
UV 8 out of 12
Pollen 8.10 out of 12
Air Quality Not available.
Flu Activity Not available.
METAR KVSF 301754Z AUTO VRB03KT 10SM CLR 27/13 A3006 RMK AO2 SLP176 T02670128 10267 20156 58013

10-Day Weather Forecast

×

Almanac

Astronomy

Aug. 30, 2015 Rise Set
Actual Time
Civil Twilight
Nautical Twilight
Astronomical Twilight
Moon
Length of Visible Light
Length of Day
Tomorrow will be .
, % of the Moon is Illuminated

Today's Extremes

State Highs State Lows

Community

WunderPhotos

Upload Photos

1,851,029 photos uploaded!

WunderBlogs® & News

Nearby

Air Quality

  Air Quality AQ Index Pollutant
Not available.

Snow Depth

Station Depth Elevation

Earthquake Activity

City Distance Mag. Time & Date
Minimum magnitude displayed is 2.5.

Coastal Water Temperatures

Place Temperature

Stations

Nearby Weather Stations

Station Location Temp. Windchill Dew Point Humidity Wind Precip. Elev Updated Type